sensor_id;sensor_type;location;lat;lon;timestamp;temperature;humidity
774;DHT22;370;48.810;9.150;2023-01-25T00:02:04;3.80;24.50
774;DHT22;370;48.810;9.150;2023-01-25T00:04:31;3.80;24.00
774;DHT22;370;48.810;9.150;2023-01-25T00:06:58;3.80;24.10
774;DHT22;370;48.810;9.150;2023-01-25T00:09:25;4.00;24.10
774;DHT22;370;48.810;9.150;2023-01-25T00:11:53;3.70;24.20
774;DHT22;370;48.810;9.150;2023-01-25T00:14:22;3.80;24.40
774;DHT22;370;48.810;9.150;2023-01-25T00:16:50;3.80;24.10
774;DHT22;370;48.810;9.150;2023-01-25T00:19:17;3.90;23.80
774;DHT22;370;48.810;9.150;2023-01-25T00:21:44;4.00;23.30
774;DHT22;370;48.810;9.150;2023-01-25T00:24:10;4.10;22.70
774;DHT22;370;48.810;9.150;2023-01-25T00:26:39;4.00;22.90
774;DHT22;370;48.810;9.150;2023-01-25T00:29:10;4.10;22.00
774;DHT22;370;48.810;9.150;2023-01-25T00:31:45;4.20;21.80
774;DHT22;370;48.810;9.150;2023-01-25T00:34:37;4.20;21.90
774;DHT22;370;48.810;9.150;2023-01-25T00:37:12;4.20;21.30
774;DHT22;370;48.810;9.150;2023-01-25T00:39:39;4.30;21.20
774;DHT22;370;48.810;9.150;2023-01-25T00:42:07;4.30;20.40
774;DHT22;370;48.810;9.150;2023-01-25T00:44:37;4.40;19.40
774;DHT22;370;48.810;9.150;2023-01-25T00:47:04;4.20;19.80
774;DHT22;370;48.810;9.150;2023-01-25T00:49:31;4.20;19.80
774;DHT22;370;48.810;9.150;2023-01-25T00:51:58;4.20;20.10
774;DHT22;370;48.810;9.150;2023-01-25T00:54:25;4.20;19.90
774;DHT22;370;48.810;9.150;2023-01-25T00:56:52;4.20;20.40
774;DHT22;370;48.810;9.150;2023-01-25T00:59:21;4.20;20.00
774;DHT22;370;48.810;9.150;2023-01-25T01:01:50;4.10;20.30
774;DHT22;370;48.810;9.150;2023-01-25T01:04:17;4.10;21.10
774;DHT22;370;48.810;9.150;2023-01-25T01:06:44;4.00;20.90
774;DHT22;370;48.810;9.150;2023-01-25T01:09:12;4.10;21.60
774;DHT22;370;48.810;9.150;2023-01-25T01:11:39;4.10;20.90
774;DHT22;370;48.810;9.150;2023-01-25T01:14:06;4.00;21.10
774;DHT22;370;48.810;9.150;2023-01-25T01:16:34;4.00;21.40
774;DHT22;370;48.810;9.150;2023-01-25T01:19:04;4.10;20.90
774;DHT22;370;48.810;9.150;2023-01-25T01:21:31;4.10;20.50
774;DHT22;370;48.810;9.150;2023-01-25T01:23:58;4.10;20.00
774;DHT22;370;48.810;9.150;2023-01-25T01:26:25;4.10;20.20
774;DHT22;370;48.810;9.150;2023-01-25T01:28:51;4.10;20.20
774;DHT22;370;48.810;9.150;2023-01-25T01:31:20;4.00;20.50
774;DHT22;370;48.810;9.150;2023-01-25T01:33:48;4.10;20.60
774;DHT22;370;48.810;9.150;2023-01-25T01:36:18;4.10;19.90
774;DHT22;370;48.810;9.150;2023-01-25T01:38:45;4.10;20.20
774;DHT22;370;48.810;9.150;2023-01-25T01:41:13;4.20;19.60
774;DHT22;370;48.810;9.150;2023-01-25T01:43:42;4.20;19.30
774;DHT22;370;48.810;9.150;2023-01-25T01:46:12;4.10;19.20
774;DHT22;370;48.810;9.150;2023-01-25T01:48:42;4.10;19.30
774;DHT22;370;48.810;9.150;2023-01-25T01:51:17;4.20;19.30
774;DHT22;370;48.810;9.150;2023-01-25T01:53:47;4.20;19.30
774;DHT22;370;48.810;9.150;2023-01-25T01:56:20;4.10;19.20
774;DHT22;370;48.810;9.150;2023-01-25T01:58:49;3.90;20.60
774;DHT22;370;48.810;9.150;2023-01-25T02:01:18;4.00;20.80
774;DHT22;370;48.810;9.150;2023-01-25T02:03:46;4.00;20.30
774;DHT22;370;48.810;9.150;2023-01-25T02:06:19;4.00;20.60
774;DHT22;370;48.810;9.150;2023-01-25T02:08:48;3.90;21.30
774;DHT22;370;48.810;9.150;2023-01-25T02:11:16;4.00;21.30
774;DHT22;370;48.810;9.150;2023-01-25T02:13:43;4.00;21.30
774;DHT22;370;48.810;9.150;2023-01-25T02:16:14;4.00;21.10
774;DHT22;370;48.810;9.150;2023-01-25T02:18:41;4.00;20.20
774;DHT22;370;48.810;9.150;2023-01-25T02:21:08;4.10;20.40
774;DHT22;370;48.810;9.150;2023-01-25T02:23:43;4.00;21.10
774;DHT22;370;48.810;9.150;2023-01-25T02:26:15;4.00;20.80
774;DHT22;370;48.810;9.150;2023-01-25T02:28:47;4.00;21.30
774;DHT22;370;48.810;9.150;2023-01-25T02:31:15;4.00;21.80
774;DHT22;370;48.810;9.150;2023-01-25T02:33:42;4.00;22.10
774;DHT22;370;48.810;9.150;2023-01-25T02:36:20;4.00;21.60
774;DHT22;370;48.810;9.150;2023-01-25T02:38:51;4.10;21.70
774;DHT22;370;48.810;9.150;2023-01-25T02:41:24;4.10;21.20
774;DHT22;370;48.810;9.150;2023-01-25T02:43:52;4.10;20.40
774;DHT22;370;48.810;9.150;2023-01-25T02:46:23;4.10;21.10
774;DHT22;370;48.810;9.150;2023-01-25T02:48:52;4.10;21.30
774;DHT22;370;48.810;9.150;2023-01-25T02:51:19;4.10;21.00
774;DHT22;370;48.810;9.150;2023-01-25T02:53:46;4.10;20.80
774;DHT22;370;48.810;9.150;2023-01-25T02:56:13;4.10;21.00
774;DHT22;370;48.810;9.150;2023-01-25T02:58:41;4.00;21.00
774;DHT22;370;48.810;9.150;2023-01-25T03:01:08;4.00;21.70
774;DHT22;370;48.810;9.150;2023-01-25T03:03:35;4.10;21.60
774;DHT22;370;48.810;9.150;2023-01-25T03:06:02;4.10;21.10
774;DHT22;370;48.810;9.150;2023-01-25T03:08:29;4.10;21.20
774;DHT22;370;48.810;9.150;2023-01-25T03:10:56;4.10;21.80
774;DHT22;370;48.810;9.150;2023-01-25T03:13:23;4.00;21.40
774;DHT22;370;48.810;9.150;2023-01-25T03:15:57;4.00;21.80
774;DHT22;370;48.810;9.150;2023-01-25T03:18:24;4.10;21.60
774;DHT22;370;48.810;9.150;2023-01-25T03:20:51;4.10;21.50
774;DHT22;370;48.810;9.150;2023-01-25T03:23:18;4.10;21.30
774;DHT22;370;48.810;9.150;2023-01-25T03:25:45;4.10;20.80
774;DHT22;370;48.810;9.150;2023-01-25T03:28:11;4.00;21.50
774;DHT22;370;48.810;9.150;2023-01-25T03:30:38;4.00;21.40
774;DHT22;370;48.810;9.150;2023-01-25T03:33:06;4.10;21.40
774;DHT22;370;48.810;9.150;2023-01-25T03:35:33;4.00;22.10
774;DHT22;370;48.810;9.150;2023-01-25T03:38:00;4.00;22.30
774;DHT22;370;48.810;9.150;2023-01-25T03:40:27;4.00;22.60
774;DHT22;370;48.810;9.150;2023-01-25T03:42:53;3.90;22.90
774;DHT22;370;48.810;9.150;2023-01-25T03:45:20;3.90;22.70
774;DHT22;370;48.810;9.150;2023-01-25T03:47:47;3.90;23.20
774;DHT22;370;48.810;9.150;2023-01-25T03:50:15;3.90;22.70
774;DHT22;370;48.810;9.150;2023-01-25T03:52:42;3.80;23.40
774;DHT22;370;48.810;9.150;2023-01-25T03:55:11;3.80;23.40
774;DHT22;370;48.810;9.150;2023-01-25T03:57:38;3.80;23.90
774;DHT22;370;48.810;9.150;2023-01-25T04:00:06;3.80;23.80
774;DHT22;370;48.810;9.150;2023-01-25T04:02:34;3.80;24.50
774;DHT22;370;48.810;9.150;2023-01-25T04:05:01;3.80;24.40
774;DHT22;370;48.810;9.150;2023-01-25T04:07:29;3.80;24.70
774;DHT22;370;48.810;9.150;2023-01-25T04:09:58;3.80;24.00
774;DHT22;370;48.810;9.150;2023-01-25T04:12:25;3.90;24.60
774;DHT22;370;48.810;9.150;2023-01-25T04:14:51;3.90;24.40
774;DHT22;370;48.810;9.150;2023-01-25T04:17:18;3.90;23.90
774;DHT22;370;48.810;9.150;2023-01-25T04:19:45;4.00;23.50
774;DHT22;370;48.810;9.150;2023-01-25T04:22:12;3.90;23.40
774;DHT22;370;48.810;9.150;2023-01-25T04:24:40;4.00;24.10
774;DHT22;370;48.810;9.150;2023-01-25T04:27:07;4.00;23.60
774;DHT22;370;48.810;9.150;2023-01-25T04:29:34;4.00;23.30
774;DHT22;370;48.810;9.150;2023-01-25T04:32:01;4.00;23.20
774;DHT22;370;48.810;9.150;2023-01-25T04:34:28;4.00;22.90
774;DHT22;370;48.810;9.150;2023-01-25T04:36:55;4.00;23.30
774;DHT22;370;48.810;9.150;2023-01-25T04:39:22;3.90;23.60
774;DHT22;370;48.810;9.150;2023-01-25T04:41:50;3.90;23.80
774;DHT22;370;48.810;9.150;2023-01-25T04:44:16;4.00;22.90
774;DHT22;370;48.810;9.150;2023-01-25T04:46:43;4.00;22.60
774;DHT22;370;48.810;9.150;2023-01-25T04:49:10;4.00;22.00
774;DHT22;370;48.810;9.150;2023-01-25T04:51:37;4.00;20.80
774;DHT22;370;48.810;9.150;2023-01-25T04:54:04;4.10;20.70
774;DHT22;370;48.810;9.150;2023-01-25T04:56:30;4.10;20.40
774;DHT22;370;48.810;9.150;2023-01-25T04:58:58;4.00;20.80
774;DHT22;370;48.810;9.150;2023-01-25T05:01:25;4.10;20.00
774;DHT22;370;48.810;9.150;2023-01-25T05:03:52;4.10;19.20
774;DHT22;370;48.810;9.150;2023-01-25T05:06:19;4.10;19.20
774;DHT22;370;48.810;9.150;2023-01-25T05:08:46;4.10;19.20
774;DHT22;370;48.810;9.150;2023-01-25T05:11:12;4.10;19.20
774;DHT22;370;48.810;9.150;2023-01-25T05:13:39;4.10;20.30
774;DHT22;370;48.810;9.150;2023-01-25T05:16:07;4.10;19.80
774;DHT22;370;48.810;9.150;2023-01-25T05:18:34;4.10;19.90
774;DHT22;370;48.810;9.150;2023-01-25T05:21:01;4.10;19.30
774;DHT22;370;48.810;9.150;2023-01-25T05:23:28;4.20;19.30
774;DHT22;370;48.810;9.150;2023-01-25T05:25:55;4.20;19.30
774;DHT22;370;48.810;9.150;2023-01-25T05:28:39;4.20;19.30
774;DHT22;370;48.810;9.150;2023-01-25T05:31:07;4.20;18.90
774;DHT22;370;48.810;9.150;2023-01-25T05:33:34;4.10;19.20
774;DHT22;370;48.810;9.150;2023-01-25T05:36:01;4.10;19.20
774;DHT22;370;48.810;9.150;2023-01-25T05:38:28;4.10;19.80
774;DHT22;370;48.810;9.150;2023-01-25T05:40:57;4.00;20.40
774;DHT22;370;48.810;9.150;2023-01-25T05:43:24;4.10;20.00
774;DHT22;370;48.810;9.150;2023-01-25T05:45:53;4.10;19.20
774;DHT22;370;48.810;9.150;2023-01-25T05:48:22;4.00;19.20
774;DHT22;370;48.810;9.150;2023-01-25T05:50:48;4.00;20.20
774;DHT22;370;48.810;9.150;2023-01-25T05:53:15;4.00;19.20
774;DHT22;370;48.810;9.150;2023-01-25T05:55:42;4.10;19.20
774;DHT22;370;48.810;9.150;2023-01-25T05:58:09;4.00;19.20
774;DHT22;370;48.810;9.150;2023-01-25T06:00:36;4.00;18.40
774;DHT22;370;48.810;9.150;2023-01-25T06:03:02;4.00;18.70
774;DHT22;370;48.810;9.150;2023-01-25T06:05:30;4.10;18.20
774;DHT22;370;48.810;9.150;2023-01-25T06:07:57;4.00;18.20
774;DHT22;370;48.810;9.150;2023-01-25T06:10:24;4.00;18.40
774;DHT22;370;48.810;9.150;2023-01-25T06:12:56;4.10;17.70
774;DHT22;370;48.810;9.150;2023-01-25T06:15:23;4.10;18.10
774;DHT22;370;48.810;9.150;2023-01-25T06:17:53;4.00;17.40
774;DHT22;370;48.810;9.150;2023-01-25T06:20:20;4.00;16.80
774;DHT22;370;48.810;9.150;2023-01-25T06:22:49;4.00;16.00
774;DHT22;370;48.810;9.150;2023-01-25T06:25:16;4.00;15.60
774;DHT22;370;48.810;9.150;2023-01-25T06:27:43;4.00;15.90
774;DHT22;370;48.810;9.150;2023-01-25T06:30:11;4.00;15.50
774;DHT22;370;48.810;9.150;2023-01-25T06:32:38;3.90;15.70
774;DHT22;370;48.810;9.150;2023-01-25T06:35:05;3.80;15.60
774;DHT22;370;48.810;9.150;2023-01-25T06:37:32;3.90;16.60
774;DHT22;370;48.810;9.150;2023-01-25T06:40:00;3.90;16.60
774;DHT22;370;48.810;9.150;2023-01-25T06:42:27;3.80;16.60
774;DHT22;370;48.810;9.150;2023-01-25T06:44:54;3.90;16.60
774;DHT22;370;48.810;9.150;2023-01-25T06:47:20;3.90;15.40
774;DHT22;370;48.810;9.150;2023-01-25T06:49:47;3.80;16.20
774;DHT22;370;48.810;9.150;2023-01-25T06:52:14;3.90;15.60
774;DHT22;370;48.810;9.150;2023-01-25T06:54:40;3.90;15.70
774;DHT22;370;48.810;9.150;2023-01-25T06:57:08;3.90;15.60
774;DHT22;370;48.810;9.150;2023-01-25T06:59:36;4.00;15.70
774;DHT22;370;48.810;9.150;2023-01-25T07:02:03;4.00;15.10
774;DHT22;370;48.810;9.150;2023-01-25T07:04:30;4.10;15.40
774;DHT22;370;48.810;9.150;2023-01-25T07:06:57;4.10;15.30
774;DHT22;370;48.810;9.150;2023-01-25T07:09:24;4.10;14.00
774;DHT22;370;48.810;9.150;2023-01-25T07:11:51;4.10;14.10
774;DHT22;370;48.810;9.150;2023-01-25T07:14:19;4.00;13.80
774;DHT22;370;48.810;9.150;2023-01-25T07:16:46;4.10;13.20
774;DHT22;370;48.810;9.150;2023-01-25T07:19:13;4.00;13.10
774;DHT22;370;48.810;9.150;2023-01-25T07:21:39;4.10;13.20
774;DHT22;370;48.810;9.150;2023-01-25T07:24:09;4.20;12.40
774;DHT22;370;48.810;9.150;2023-01-25T07:26:38;4.20;12.20
774;DHT22;370;48.810;9.150;2023-01-25T07:29:05;4.20;11.50
774;DHT22;370;48.810;9.150;2023-01-25T07:31:35;4.10;12.40
774;DHT22;370;48.810;9.150;2023-01-25T07:34:02;4.10;12.60
774;DHT22;370;48.810;9.150;2023-01-25T07:36:29;4.10;12.60
774;DHT22;370;48.810;9.150;2023-01-25T07:38:57;4.20;11.40
774;DHT22;370;48.810;9.150;2023-01-25T07:41:24;4.20;11.50
774;DHT22;370;48.810;9.150;2023-01-25T07:43:51;4.10;12.60
774;DHT22;370;48.810;9.150;2023-01-25T07:46:18;4.20;12.10
774;DHT22;370;48.810;9.150;2023-01-25T07:48:48;4.20;11.50
774;DHT22;370;48.810;9.150;2023-01-25T07:51:16;4.20;11.00
774;DHT22;370;48.810;9.150;2023-01-25T07:53:52;4.30;10.90
774;DHT22;370;48.810;9.150;2023-01-25T07:56:20;4.30;10.90
774;DHT22;370;48.810;9.150;2023-01-25T07:58:47;4.30;11.30
774;DHT22;370;48.810;9.150;2023-01-25T08:01:16;4.30;10.90
774;DHT22;370;48.810;9.150;2023-01-25T08:03:43;4.30;10.90
774;DHT22;370;48.810;9.150;2023-01-25T08:06:11;4.30;10.20
774;DHT22;370;48.810;9.150;2023-01-25T08:08:40;4.30;10.60
774;DHT22;370;48.810;9.150;2023-01-25T08:11:09;4.40;11.00
774;DHT22;370;48.810;9.150;2023-01-25T08:13:37;4.40;11.00
774;DHT22;370;48.810;9.150;2023-01-25T08:16:04;4.40;11.00
774;DHT22;370;48.810;9.150;2023-01-25T08:18:31;4.50;10.00
774;DHT22;370;48.810;9.150;2023-01-25T08:20:58;4.60;9.90
774;DHT22;370;48.810;9.150;2023-01-25T08:23:26;4.50;10.40
774;DHT22;370;48.810;9.150;2023-01-25T08:25:53;4.40;11.00
774;DHT22;370;48.810;9.150;2023-01-25T08:28:20;4.50;11.00
774;DHT22;370;48.810;9.150;2023-01-25T08:30:47;4.40;11.00
774;DHT22;370;48.810;9.150;2023-01-25T08:33:14;4.20;12.00
774;DHT22;370;48.810;9.150;2023-01-25T08:35:41;4.30;12.20
774;DHT22;370;48.810;9.150;2023-01-25T08:38:07;4.40;11.00
774;DHT22;370;48.810;9.150;2023-01-25T08:40:35;4.50;11.00
774;DHT22;370;48.810;9.150;2023-01-25T08:43:02;4.40;11.00
774;DHT22;370;48.810;9.150;2023-01-25T08:45:29;4.30;10.90
774;DHT22;370;48.810;9.150;2023-01-25T08:47:59;4.30;11.20
774;DHT22;370;48.810;9.150;2023-01-25T08:50:25;4.20;12.00
774;DHT22;370;48.810;9.150;2023-01-25T08:52:52;4.20;12.80
774;DHT22;370;48.810;9.150;2023-01-25T08:55:19;4.30;11.90
774;DHT22;370;48.810;9.150;2023-01-25T08:57:47;4.30;11.40
774;DHT22;370;48.810;9.150;2023-01-25T09:00:16;4.40;11.00
774;DHT22;370;48.810;9.150;2023-01-25T09:02:43;4.40;11.00
774;DHT22;370;48.810;9.150;2023-01-25T09:05:09;4.50;10.40
774;DHT22;370;48.810;9.150;2023-01-25T09:07:36;4.50;9.70
774;DHT22;370;48.810;9.150;2023-01-25T09:10:04;4.50;8.80
774;DHT22;370;48.810;9.150;2023-01-25T09:12:33;4.50;9.10
774;DHT22;370;48.810;9.150;2023-01-25T09:15:02;4.60;9.10
774;DHT22;370;48.810;9.150;2023-01-25T09:17:29;4.60;8.90
774;DHT22;370;48.810;9.150;2023-01-25T09:19:56;4.70;9.10
774;DHT22;370;48.810;9.150;2023-01-25T09:22:23;4.70;8.90
774;DHT22;370;48.810;9.150;2023-01-25T09:24:50;4.60;9.10
774;DHT22;370;48.810;9.150;2023-01-25T09:27:18;4.70;9.00
774;DHT22;370;48.810;9.150;2023-01-25T09:29:45;4.60;8.90
774;DHT22;370;48.810;9.150;2023-01-25T09:32:13;4.50;9.60
774;DHT22;370;48.810;9.150;2023-01-25T09:34:40;4.60;9.30
774;DHT22;370;48.810;9.150;2023-01-25T09:37:07;4.60;8.60
774;DHT22;370;48.810;9.150;2023-01-25T09:39:34;4.60;8.40
774;DHT22;370;48.810;9.150;2023-01-25T09:42:29;4.70;7.70
774;DHT22;370;48.810;9.150;2023-01-25T09:45:14;4.70;8.30
774;DHT22;370;48.810;9.150;2023-01-25T09:47:49;4.70;8.30
774;DHT22;370;48.810;9.150;2023-01-25T09:50:33;4.70;7.30
774;DHT22;370;48.810;9.150;2023-01-25T09:53:24;4.80;7.30
774;DHT22;370;48.810;9.150;2023-01-25T09:55:55;4.80;7.60
774;DHT22;370;48.810;9.150;2023-01-25T09:58:29;4.90;6.90
774;DHT22;370;48.810;9.150;2023-01-25T10:01:08;4.90;6.60
774;DHT22;370;48.810;9.150;2023-01-25T10:03:44;4.80;6.80
774;DHT22;370;48.810;9.150;2023-01-25T10:06:13;4.70;6.10
774;DHT22;370;48.810;9.150;2023-01-25T10:08:48;4.70;6.60
774;DHT22;370;48.810;9.150;2023-01-25T10:11:21;4.70;6.80
774;DHT22;370;48.810;9.150;2023-01-25T10:13:49;4.80;6.80
774;DHT22;370;48.810;9.150;2023-01-25T10:16:20;4.80;6.50
774;DHT22;370;48.810;9.150;2023-01-25T10:18:55;4.90;6.40
774;DHT22;370;48.810;9.150;2023-01-25T10:21:28;5.00;6.10
774;DHT22;370;48.810;9.150;2023-01-25T10:24:23;5.00;5.50
774;DHT22;370;48.810;9.150;2023-01-25T10:26:56;5.00;5.30
774;DHT22;370;48.810;9.150;2023-01-25T10:29:26;5.10;5.00
774;DHT22;370;48.810;9.150;2023-01-25T10:31:54;5.10;4.50
774;DHT22;370;48.810;9.150;2023-01-25T10:34:31;5.00;4.40
774;DHT22;370;48.810;9.150;2023-01-25T10:37:02;5.10;4.40
774;DHT22;370;48.810;9.150;2023-01-25T10:39:31;5.20;4.30
774;DHT22;370;48.810;9.150;2023-01-25T10:42:04;5.20;3.10
774;DHT22;370;48.810;9.150;2023-01-25T10:44:35;5.10;3.50
774;DHT22;370;48.810;9.150;2023-01-25T10:47:06;5.10;4.30
774;DHT22;370;48.810;9.150;2023-01-25T10:49:41;5.10;4.00
774;DHT22;370;48.810;9.150;2023-01-25T10:52:14;5.10;4.00
774;DHT22;370;48.810;9.150;2023-01-25T10:54:41;5.10;3.00
774;DHT22;370;48.810;9.150;2023-01-25T10:57:12;5.10;4.10
774;DHT22;370;48.810;9.150;2023-01-25T10:59:43;5.00;3.70
774;DHT22;370;48.810;9.150;2023-01-25T11:02:43;5.20;4.00
774;DHT22;370;48.810;9.150;2023-01-25T11:05:32;5.20;2.90
774;DHT22;370;48.810;9.150;2023-01-25T11:08:19;5.40;2.80
774;DHT22;370;48.810;9.150;2023-01-25T11:10:48;5.30;2.80
774;DHT22;370;48.810;9.150;2023-01-25T11:13:23;5.20;2.70
774;DHT22;370;48.810;9.150;2023-01-25T11:15:53;5.00;4.20
774;DHT22;370;48.810;9.150;2023-01-25T11:18:22;5.00;3.90
774;DHT22;370;48.810;9.150;2023-01-25T11:21:04;5.10;4.10
774;DHT22;370;48.810;9.150;2023-01-25T11:23:32;5.00;4.00
774;DHT22;370;48.810;9.150;2023-01-25T11:26:14;5.10;3.80
774;DHT22;370;48.810;9.150;2023-01-25T11:28:41;5.10;3.40
774;DHT22;370;48.810;9.150;2023-01-25T11:31:11;4.90;3.90
774;DHT22;370;48.810;9.150;2023-01-25T11:33:39;5.00;4.80
774;DHT22;370;48.810;9.150;2023-01-25T11:36:19;5.00;4.40
774;DHT22;370;48.810;9.150;2023-01-25T11:39:14;4.80;4.50
774;DHT22;370;48.810;9.150;2023-01-25T11:41:58;4.80;4.80
774;DHT22;370;48.810;9.150;2023-01-25T11:44:47;4.70;5.40
774;DHT22;370;48.810;9.150;2023-01-25T11:47:23;4.70;5.90
774;DHT22;370;48.810;9.150;2023-01-25T11:49:58;4.80;5.50
774;DHT22;370;48.810;9.150;2023-01-25T11:52:36;4.80;5.20
774;DHT22;370;48.810;9.150;2023-01-25T11:55:15;4.80;5.00
774;DHT22;370;48.810;9.150;2023-01-25T11:57:55;4.70;6.00
774;DHT22;370;48.810;9.150;2023-01-25T12:00:34;4.60;6.60
774;DHT22;370;48.810;9.150;2023-01-25T12:06:10;4.70;6.20
774;DHT22;370;48.810;9.150;2023-01-25T12:08:50;4.60;6.20
774;DHT22;370;48.810;9.150;2023-01-25T12:11:30;4.70;6.40
774;DHT22;370;48.810;9.150;2023-01-25T12:14:04;4.70;5.90
774;DHT22;370;48.810;9.150;2023-01-25T12:16:43;4.60;6.60
774;DHT22;370;48.810;9.150;2023-01-25T12:19:29;4.60;6.00
774;DHT22;370;48.810;9.150;2023-01-25T12:22:20;4.60;6.90
774;DHT22;370;48.810;9.150;2023-01-25T12:24:57;4.70;5.80
774;DHT22;370;48.810;9.150;2023-01-25T12:27:34;4.60;7.00
774;DHT22;370;48.810;9.150;2023-01-25T12:30:12;4.60;6.90
774;DHT22;370;48.810;9.150;2023-01-25T12:32:46;4.60;6.40
774;DHT22;370;48.810;9.150;2023-01-25T12:35:24;4.70;7.20
774;DHT22;370;48.810;9.150;2023-01-25T12:37:56;4.70;6.50
774;DHT22;370;48.810;9.150;2023-01-25T12:40:32;4.70;6.40
774;DHT22;370;48.810;9.150;2023-01-25T12:43:00;4.70;6.60
774;DHT22;370;48.810;9.150;2023-01-25T12:45:30;4.70;6.50
774;DHT22;370;48.810;9.150;2023-01-25T12:48:02;4.90;6.40
774;DHT22;370;48.810;9.150;2023-01-25T12:50:41;4.70;6.30
774;DHT22;370;48.810;9.150;2023-01-25T12:53:16;4.70;6.30
774;DHT22;370;48.810;9.150;2023-01-25T12:55:46;4.80;5.90
774;DHT22;370;48.810;9.150;2023-01-25T12:58:19;4.80;6.00
774;DHT22;370;48.810;9.150;2023-01-25T13:00:53;4.80;5.60
774;DHT22;370;48.810;9.150;2023-01-25T13:03:26;4.50;6.70
774;DHT22;370;48.810;9.150;2023-01-25T13:05:59;4.60;6.80
774;DHT22;370;48.810;9.150;2023-01-25T13:08:37;4.60;6.60
774;DHT22;370;48.810;9.150;2023-01-25T13:11:14;4.60;7.00
774;DHT22;370;48.810;9.150;2023-01-25T13:13:43;4.70;7.00
774;DHT22;370;48.810;9.150;2023-01-25T13:16:34;4.70;6.60
774;DHT22;370;48.810;9.150;2023-01-25T13:19:01;4.80;6.70
774;DHT22;370;48.810;9.150;2023-01-25T13:21:40;4.80;6.50
774;DHT22;370;48.810;9.150;2023-01-25T13:24:26;4.80;6.00
774;DHT22;370;48.810;9.150;2023-01-25T13:27:01;4.60;6.70
774;DHT22;370;48.810;9.150;2023-01-25T13:29:59;4.60;7.10
774;DHT22;370;48.810;9.150;2023-01-25T13:35:36;4.70;5.30
774;DHT22;370;48.810;9.150;2023-01-25T13:43:37;4.60;6.30
774;DHT22;370;48.810;9.150;2023-01-25T13:46:05;4.60;6.40
774;DHT22;370;48.810;9.150;2023-01-25T13:48:34;4.60;5.90
774;DHT22;370;48.810;9.150;2023-01-25T13:51:04;4.60;6.40
774;DHT22;370;48.810;9.150;2023-01-25T13:53:32;4.60;6.30
774;DHT22;370;48.810;9.150;2023-01-25T13:56:00;4.60;6.70
774;DHT22;370;48.810;9.150;2023-01-25T13:58:29;4.50;6.70
774;DHT22;370;48.810;9.150;2023-01-25T14:00:59;4.50;6.70
774;DHT22;370;48.810;9.150;2023-01-25T14:03:32;4.50;6.70
774;DHT22;370;48.810;9.150;2023-01-25T14:06:00;4.40;7.50
774;DHT22;370;48.810;9.150;2023-01-25T14:08:29;4.40;7.80
774;DHT22;370;48.810;9.150;2023-01-25T14:10:57;4.40;7.60
774;DHT22;370;48.810;9.150;2023-01-25T14:13:24;4.40;7.30
774;DHT22;370;48.810;9.150;2023-01-25T14:15:53;4.40;7.80
774;DHT22;370;48.810;9.150;2023-01-25T14:18:26;4.30;7.30
774;DHT22;370;48.810;9.150;2023-01-25T14:21:11;4.10;8.50
774;DHT22;370;48.810;9.150;2023-01-25T14:23:38;4.20;9.00
774;DHT22;370;48.810;9.150;2023-01-25T14:26:20;4.30;9.90
774;DHT22;370;48.810;9.150;2023-01-25T14:28:50;4.30;9.60
774;DHT22;370;48.810;9.150;2023-01-25T14:31:22;4.40;9.00
774;DHT22;370;48.810;9.150;2023-01-25T14:33:52;4.40;8.20
774;DHT22;370;48.810;9.150;2023-01-25T14:36:25;4.30;8.90
774;DHT22;370;48.810;9.150;2023-01-25T14:38:53;4.30;8.50
774;DHT22;370;48.810;9.150;2023-01-25T14:41:24;4.30;8.30
774;DHT22;370;48.810;9.150;2023-01-25T14:43:53;4.10;8.00
774;DHT22;370;48.810;9.150;2023-01-25T14:46:27;4.10;8.70
774;DHT22;370;48.810;9.150;2023-01-25T14:49:15;4.10;9.30
774;DHT22;370;48.810;9.150;2023-01-25T14:51:51;4.00;10.20
774;DHT22;370;48.810;9.150;2023-01-25T14:54:21;4.10;9.70
774;DHT22;370;48.810;9.150;2023-01-25T14:56:50;4.00;10.10
774;DHT22;370;48.810;9.150;2023-01-25T14:59:30;4.10;9.80
774;DHT22;370;48.810;9.150;2023-01-25T15:02:00;4.20;9.20
774;DHT22;370;48.810;9.150;2023-01-25T15:04:28;4.20;8.60
774;DHT22;370;48.810;9.150;2023-01-25T15:06:56;4.10;9.10
774;DHT22;370;48.810;9.150;2023-01-25T15:09:31;4.10;9.00
774;DHT22;370;48.810;9.150;2023-01-25T15:11:59;4.00;9.10
774;DHT22;370;48.810;9.150;2023-01-25T15:14:26;3.70;10.50
774;DHT22;370;48.810;9.150;2023-01-25T15:16:53;3.50;11.60
774;DHT22;370;48.810;9.150;2023-01-25T15:19:22;3.60;12.90
774;DHT22;370;48.810;9.150;2023-01-25T15:21:50;3.70;12.30
774;DHT22;370;48.810;9.150;2023-01-25T15:24:19;3.80;11.80
774;DHT22;370;48.810;9.150;2023-01-25T15:26:49;3.90;11.60
774;DHT22;370;48.810;9.150;2023-01-25T15:29:18;3.90;10.70
774;DHT22;370;48.810;9.150;2023-01-25T15:31:47;3.90;10.70
774;DHT22;370;48.810;9.150;2023-01-25T15:34:16;3.90;11.10
774;DHT22;370;48.810;9.150;2023-01-25T15:36:43;3.90;10.70
774;DHT22;370;48.810;9.150;2023-01-25T15:39:13;3.80;11.70
774;DHT22;370;48.810;9.150;2023-01-25T15:41:40;3.80;11.80
774;DHT22;370;48.810;9.150;2023-01-25T15:44:08;3.70;12.50
774;DHT22;370;48.810;9.150;2023-01-25T15:46:36;3.70;12.60
774;DHT22;370;48.810;9.150;2023-01-25T15:49:04;3.90;12.30
774;DHT22;370;48.810;9.150;2023-01-25T15:51:32;3.80;11.20
774;DHT22;370;48.810;9.150;2023-01-25T15:53:59;3.80;11.40
774;DHT22;370;48.810;9.150;2023-01-25T15:56:29;3.60;12.00
774;DHT22;370;48.810;9.150;2023-01-25T15:58:58;3.60;12.40
774;DHT22;370;48.810;9.150;2023-01-25T16:01:27;3.30;13.30
774;DHT22;370;48.810;9.150;2023-01-25T16:03:54;3.20;15.20
774;DHT22;370;48.810;9.150;2023-01-25T16:06:34;3.30;14.70
774;DHT22;370;48.810;9.150;2023-01-25T16:09:04;3.30;14.70
774;DHT22;370;48.810;9.150;2023-01-25T16:11:38;3.30;15.10
774;DHT22;370;48.810;9.150;2023-01-25T16:14:05;3.30;14.90
774;DHT22;370;48.810;9.150;2023-01-25T16:16:33;3.30;15.60
774;DHT22;370;48.810;9.150;2023-01-25T16:19:02;3.40;15.20
774;DHT22;370;48.810;9.150;2023-01-25T16:21:29;3.50;14.30
774;DHT22;370;48.810;9.150;2023-01-25T16:23:56;3.40;13.70
774;DHT22;370;48.810;9.150;2023-01-25T16:26:25;3.50;14.80
774;DHT22;370;48.810;9.150;2023-01-25T16:28:54;3.30;14.10
774;DHT22;370;48.810;9.150;2023-01-25T16:31:21;3.20;15.10
774;DHT22;370;48.810;9.150;2023-01-25T16:33:48;3.30;15.70
774;DHT22;370;48.810;9.150;2023-01-25T16:36:16;3.50;14.90
774;DHT22;370;48.810;9.150;2023-01-25T16:38:43;3.30;13.70
774;DHT22;370;48.810;9.150;2023-01-25T16:41:10;3.10;15.40
774;DHT22;370;48.810;9.150;2023-01-25T16:43:39;3.10;15.90
774;DHT22;370;48.810;9.150;2023-01-25T16:46:13;3.10;16.80
774;DHT22;370;48.810;9.150;2023-01-25T16:48:40;3.30;16.10
774;DHT22;370;48.810;9.150;2023-01-25T16:51:13;3.40;15.10
774;DHT22;370;48.810;9.150;2023-01-25T16:53:40;3.50;14.10
774;DHT22;370;48.810;9.150;2023-01-25T16:56:08;3.40;14.60
774;DHT22;370;48.810;9.150;2023-01-25T16:58:40;3.40;14.00
774;DHT22;370;48.810;9.150;2023-01-25T17:01:09;3.30;13.90
774;DHT22;370;48.810;9.150;2023-01-25T17:03:36;3.20;14.10
774;DHT22;370;48.810;9.150;2023-01-25T17:06:03;3.20;15.30
774;DHT22;370;48.810;9.150;2023-01-25T17:08:30;3.20;15.60
774;DHT22;370;48.810;9.150;2023-01-25T17:11:02;3.40;15.20
774;DHT22;370;48.810;9.150;2023-01-25T17:13:29;3.50;14.70
774;DHT22;370;48.810;9.150;2023-01-25T17:15:56;3.40;14.80
774;DHT22;370;48.810;9.150;2023-01-25T17:18:24;3.40;15.50
774;DHT22;370;48.810;9.150;2023-01-25T17:20:56;3.50;14.70
774;DHT22;370;48.810;9.150;2023-01-25T17:23:23;3.20;14.20
774;DHT22;370;48.810;9.150;2023-01-25T17:25:49;3.20;14.30
774;DHT22;370;48.810;9.150;2023-01-25T17:28:16;3.10;14.90